Time;durP1;ratioP1;P1;durP2;ratioP2;P2;SDS_P1;SDS_P2;PMS_P1;PMS_P2;Temp;Humidity;BMP_temperature;BMP_pressure;BME280_temperature;BME280_humidity;BME280_pressure;Samples;Min_cycle;Max_cycle;Signal;HPM_P1;HPM_P2
2022/03/22 00:01:24;;;;;;;6.90;3.30;;;;;;;;;;5044039;28;20033;-52
2022/03/22 00:03:51;;;;;;;5.35;3.65;;;;;;;;;;5026037;28;20029;-50
2022/03/22 00:06:18;;;;;;;4.78;3.40;;;;;;;;;;5026000;28;20411;-50
2022/03/22 00:08:44;;;;;;;5.72;3.50;;;;;;;;;;5024210;28;20115;-52
2022/03/22 00:11:12;;;;;;;5.15;3.05;;;;;;;;;;5043999;28;20503;-53
2022/03/22 00:13:38;;;;;;;6.95;3.42;;;;;;;;;;5046496;28;20112;-50
2022/03/22 00:16:05;;;;;;;5.15;3.47;;;;;;;;;;5045654;28;20025;-50
2022/03/22 00:18:32;;;;;;;4.95;3.47;;;;;;;;;;5045230;28;20372;-51
2022/03/22 00:20:58;;;;;;;4.85;3.45;;;;;;;;;;5044797;28;20148;-50
2022/03/22 00:23:26;;;;;;;5.47;3.88;;;;;;;;;;5045308;28;20675;-52
2022/03/22 00:25:52;;;;;;;5.47;3.65;;;;;;;;;;5045657;28;20021;-50
2022/03/22 00:28:19;;;;;;;5.70;3.47;;;;;;;;;;5045882;28;20027;-50
2022/03/22 00:30:45;;;;;;;6.88;3.72;;;;;;;;;;5031085;28;20568;-51
2022/03/22 00:33:11;;;;;;;4.40;3.13;;;;;;;;;;5026070;28;20108;-48
2022/03/22 00:35:39;;;;;;;5.20;3.13;;;;;;;;;;5025856;28;20521;-50
2022/03/22 00:38:13;;;;;;;5.03;3.08;;;;;;;;;;5025484;28;20112;-50
2022/03/22 00:40:40;;;;;;;5.17;3.03;;;;;;;;;;5037559;28;20064;-52
2022/03/22 00:43:07;;;;;;;5.57;3.35;;;;;;;;;;5045275;28;20029;-50
2022/03/22 00:45:33;;;;;;;6.30;3.60;;;;;;;;;;5044893;28;20519;-49
2022/03/22 00:48:00;;;;;;;6.40;3.50;;;;;;;;;;5045117;28;20124;-51
2022/03/22 00:50:28;;;;;;;5.65;3.33;;;;;;;;;;5043688;28;20032;-50
2022/03/22 00:52:56;;;;;;;6.03;3.90;;;;;;;;;;5045220;28;20110;-51
2022/03/22 00:55:23;;;;;;;6.43;3.90;;;;;;;;;;5045165;28;20179;-52
2022/03/22 00:57:50;;;;;;;6.45;3.40;;;;;;;;;;5043669;28;20013;-52
2022/03/22 01:00:16;;;;;;;5.70;3.33;;;;;;;;;;5044013;28;20033;-52
2022/03/22 01:02:43;;;;;;;5.20;3.75;;;;;;;;;;5057888;28;20555;-52
2022/03/22 01:05:17;;;;;;;5.85;3.50;;;;;;;;;;5065520;28;20024;-52
2022/03/22 01:07:47;;;;;;;;;;;;;;;;;;5065149;28;20444;-50
2022/03/22 01:10:14;;;;;;;6.90;3.90;;;;;;;;;;5056926;28;20383;-52
2022/03/22 01:12:40;;;;;;;5.82;3.65;;;;;;;;;;5045073;28;20036;-49
2022/03/22 01:15:12;;;;;;;6.47;3.65;;;;;;;;;;5044942;28;20498;-49
2022/03/22 01:17:40;;;;;;;5.80;3.72;;;;;;;;;;5043822;28;20052;-52
2022/03/22 01:20:10;;;;;;;5.93;3.70;;;;;;;;;;5043368;28;20447;-52
2022/03/22 01:22:38;;;;;;;5.85;3.63;;;;;;;;;;5043959;28;20037;-52
2022/03/22 01:25:06;;;;;;;5.45;3.50;;;;;;;;;;5042935;28;20434;-50
2022/03/22 01:27:33;;;;;;;5.75;3.88;;;;;;;;;;5044353;28;20032;-49
2022/03/22 01:30:00;;;;;;;8.27;3.88;;;;;;;;;;5044521;28;20052;-49
2022/03/22 01:32:27;;;;;;;6.20;3.80;;;;;;;;;;5044375;28;20084;-52
2022/03/22 01:34:53;;;;;;;8.48;3.63;;;;;;;;;;5031102;28;20045;-50
2022/03/22 01:37:19;;;;;;;6.05;3.28;;;;;;;;;;5040103;28;20111;-48
2022/03/22 01:39:45;;;;;;;8.50;3.70;;;;;;;;;;5044360;28;20567;-50
2022/03/22 01:42:11;;;;;;;7.13;3.55;;;;;;;;;;5044745;28;20029;-52
2022/03/22 01:44:38;;;;;;;5.07;3.05;;;;;;;;;;5043104;28;20411;-48
2022/03/22 01:47:05;;;;;;;6.72;3.30;;;;;;;;;;5043313;28;20029;-49
2022/03/22 01:49:31;;;;;;;5.95;3.47;;;;;;;;;;5043964;28;20499;-50
2022/03/22 01:51:58;;;;;;;8.27;4.38;;;;;;;;;;5043860;28;20036;-48
2022/03/22 01:54:24;;;;;;;7.88;3.65;;;;;;;;;;5043061;28;20025;-48
2022/03/22 01:56:50;;;;;;;6.43;3.80;;;;;;;;;;5044030;28;20489;-50
2022/03/22 01:59:16;;;;;;;7.95;4.10;;;;;;;;;;5044160;28;20035;-49
2022/03/22 02:07:15;;;;;;;5.70;3.45;;;;;;;;;;5024235;28;20048;-51
2022/03/22 02:09:42;;;;;;;6.18;3.80;;;;;;;;;;5024529;28;20439;-50
2022/03/22 02:12:09;;;;;;;5.93;3.88;;;;;;;;;;5024691;28;20510;-49
2022/03/22 02:14:36;;;;;;;6.82;3.67;;;;;;;;;;5032045;28;20017;-51
2022/03/22 02:17:09;;;;;;;7.43;3.53;;;;;;;;;;5044002;28;20075;-52
2022/03/22 02:19:39;;;;;;;6.15;3.15;;;;;;;;;;5044027;28;20492;-49
2022/03/22 02:22:07;;;;;;;7.10;3.85;;;;;;;;;;5043952;28;20040;-50
2022/03/22 02:24:35;;;;;;;5.97;3.10;;;;;;;;;;5042775;28;20119;-48
2022/03/22 02:27:02;;;;;;;5.55;3.65;;;;;;;;;;5043734;28;20029;-51
2022/03/22 02:29:28;;;;;;;5.85;3.47;;;;;;;;;;5043665;28;20033;-51
2022/03/22 02:31:55;;;;;;;5.38;3.60;;;;;;;;;;5043819;28;20028;-49
2022/03/22 02:34:22;;;;;;;6.30;3.65;;;;;;;;;;5042249;28;20033;-48
2022/03/22 02:36:50;;;;;;;6.22;3.08;;;;;;;;;;5044160;28;20052;-49
2022/03/22 02:39:16;;;;;;;6.80;3.80;;;;;;;;;;5027722;28;20033;-50
2022/03/22 02:41:43;;;;;;;5.72;3.80;;;;;;;;;;5024506;28;20107;-51
2022/03/22 02:44:13;;;;;;;7.50;3.50;;;;;;;;;;5024735;28;20101;-52
2022/03/22 02:46:39;;;;;;;4.65;3.30;;;;;;;;;;5024607;28;20108;-48
2022/03/22 02:49:07;;;;;;;4.82;3.17;;;;;;;;;;5037718;28;20108;-52
2022/03/22 02:51:33;;;;;;;4.75;3.17;;;;;;;;;;5046960;28;20032;-51
2022/03/22 02:54:00;;;;;;;6.90;3.95;;;;;;;;;;5047251;28;20095;-48
2022/03/22 02:56:26;;;;;;;5.43;3.35;;;;;;;;;;5047163;28;20079;-52
2022/03/22 02:58:52;;;;;;;6.40;3.40;;;;;;;;;;5046273;28;20036;-49
2022/03/22 03:01:19;;;;;;;6.97;3.90;;;;;;;;;;5046999;28;20476;-49
2022/03/22 03:03:45;;;;;;;5.78;3.45;;;;;;;;;;5047479;28;20021;-51
2022/03/22 03:06:12;;;;;;;5.95;3.45;;;;;;;;;;5046971;28;20033;-49
2022/03/22 03:08:38;;;;;;;6.18;3.30;;;;;;;;;;5033450;28;20017;-50
2022/03/22 03:11:05;;;;;;;5.88;3.75;;;;;;;;;;5047171;28;20047;-49
2022/03/22 03:14:38;;;;;;;6.28;3.22;;;;;;;;;;5046936;28;20036;-51
2022/03/22 03:16:18;;;;;;;6.68;3.65;;;;;;;;;;5046744;28;20040;-50
2022/03/22 03:18:44;;;;;;;6.63;3.88;;;;;;;;;;5046034;28;20025;-49
2022/03/22 03:21:10;;;;;;;5.68;3.50;;;;;;;;;;5047675;28;20032;-52
2022/03/22 03:23:36;;;;;;;6.20;3.72;;;;;;;;;;5046497;28;20025;-48
2022/03/22 03:26:02;;;;;;;7.28;3.60;;;;;;;;;;5046977;28;20021;-49
2022/03/22 03:28:28;;;;;;;6.03;3.80;;;;;;;;;;5045450;28;20100;-49
2022/03/22 03:30:54;;;;;;;5.38;3.45;;;;;;;;;;5046570;28;20100;-49
2022/03/22 03:33:21;;;;;;;7.70;3.90;;;;;;;;;;5046781;28;20455;-48
2022/03/22 03:35:47;;;;;;;5.65;3.58;;;;;;;;;;5046385;28;20237;-48
2022/03/22 03:38:14;;;;;;;5.65;3.38;;;;;;;;;;5037894;28;20385;-48
2022/03/22 03:43:26;;;;;;;5.70;3.67;;;;;;;;;;5027067;28;20035;-48
2022/03/22 03:48:37;;;;;;;5.13;3.40;;;;;;;;;;5025532;28;20113;-48
2022/03/22 03:51:04;;;;;;;5.40;3.33;;;;;;;;;;5026394;28;20037;-52
2022/03/22 03:53:30;;;;;;;7.03;3.80;;;;;;;;;;5025968;28;20100;-51
2022/03/22 03:55:56;;;;;;;6.20;3.63;;;;;;;;;;5026318;28;20036;-51
2022/03/22 03:58:22;;;;;;;5.30;3.22;;;;;;;;;;5032813;28;20025;-52
2022/03/22 04:00:48;;;;;;;8.05;3.92;;;;;;;;;;5045769;28;20664;-51
2022/03/22 04:03:14;;;;;;;5.40;3.42;;;;;;;;;;5046282;28;20067;-48
2022/03/22 04:05:41;;;;;;;5.30;3.63;;;;;;;;;;5042515;28;20056;-48
2022/03/22 04:08:07;;;;;;;5.53;3.58;;;;;;;;;;5030204;28;20033;-50
2022/03/22 04:10:34;;;;;;;5.63;3.70;;;;;;;;;;5045694;28;20120;-51
2022/03/22 04:13:00;;;;;;;5.70;3.42;;;;;;;;;;5046106;28;20017;-49
2022/03/22 04:15:26;;;;;;;6.82;3.42;;;;;;;;;;5045553;28;20488;-51
2022/03/22 04:17:52;;;;;;;6.30;3.47;;;;;;;;;;5044715;28;20029;-51
2022/03/22 04:20:21;;;;;;;5.80;3.72;;;;;;;;;;5045891;28;20021;-50
2022/03/22 04:22:48;;;;;;;6.20;3.58;;;;;;;;;;5045390;28;20052;-51
2022/03/22 04:25:14;;;;;;;5.15;3.78;;;;;;;;;;5045847;28;20135;-49
2022/03/22 04:33:13;;;;;;;6.05;3.70;;;;;;;;;;5046327;28;20531;-51
2022/03/22 04:35:40;;;;;;;4.68;3.13;;;;;;;;;;5045812;28;20029;-48
2022/03/22 04:38:06;;;;;;;5.93;3.95;;;;;;;;;;5043817;28;20033;-51
2022/03/22 04:40:32;;;;;;;5.50;3.55;;;;;;;;;;5045149;28;20064;-52
2022/03/22 04:42:58;;;;;;;6.07;3.55;;;;;;;;;;5045509;28;20025;-52
2022/03/22 04:45:25;;;;;;;5.32;3.30;;;;;;;;;;5045165;28;20057;-50
2022/03/22 04:47:52;;;;;;;5.13;3.15;;;;;;;;;;5044064;28;20090;-50
2022/03/22 04:50:18;;;;;;;4.63;3.00;;;;;;;;;;5045261;28;20036;-51
2022/03/22 04:58:16;;;;;;;5.32;3.42;;;;;;;;;;5033438;28;20071;-52
2022/03/22 05:00:42;;;;;;;6.65;3.20;;;;;;;;;;5045300;28;20581;-49
2022/03/22 05:03:08;;;;;;;7.68;3.50;;;;;;;;;;5045062;28;20104;-49
2022/03/22 05:08:20;;;;;;;5.20;3.28;;;;;;;;;;5042924;28;20695;-49
2022/03/22 05:10:47;;;;;;;5.38;3.20;;;;;;;;;;5029932;28;20547;-51
2022/03/22 05:13:13;;;;;;;4.93;3.28;;;;;;;;;;5025736;28;20104;-51
2022/03/22 05:15:39;;;;;;;5.63;3.55;;;;;;;;;;5024983;28;20478;-51
2022/03/22 05:18:06;;;;;;;5.47;3.70;;;;;;;;;;5029512;28;20156;-49
2022/03/22 05:20:33;;;;;;;6.22;3.50;;;;;;;;;;5044200;28;20039;-52
2022/03/22 05:23:00;;;;;;;7.25;3.53;;;;;;;;;;5044668;28;20043;-51
2022/03/22 05:25:31;;;;;;;7.00;3.80;;;;;;;;;;5044256;28;20322;-51
2022/03/22 05:27:58;;;;;;;6.88;4.22;;;;;;;;;;5043546;28;20483;-51
2022/03/22 05:30:26;;;;;;;5.90;4.00;;;;;;;;;;5044817;28;20021;-52
2022/03/22 05:32:52;;;;;;;6.07;4.00;;;;;;;;;;5044587;28;20102;-51
2022/03/22 05:35:19;;;;;;;7.25;4.25;;;;;;;;;;5044838;28;20029;-50
2022/03/22 05:37:45;;;;;;;7.93;4.00;;;;;;;;;;5029889;28;20017;-49
2022/03/22 05:40:11;;;;;;;8.32;4.38;;;;;;;;;;5043756;28;20473;-52
2022/03/22 05:42:39;;;;;;;6.70;3.90;;;;;;;;;;5042376;28;20051;-49
2022/03/22 05:45:07;;;;;;;6.80;4.15;;;;;;;;;;5044403;28;20032;-51
2022/03/22 05:47:33;;;;;;;6.70;4.40;;;;;;;;;;5044152;28;20029;-52
2022/03/22 05:49:59;;;;;;;7.57;4.63;;;;;;;;;;5035230;28;20039;-52
2022/03/22 05:52:25;;;;;;;7.20;4.32;;;;;;;;;;5041161;28;20488;-51
2022/03/22 05:54:51;;;;;;;7.43;4.03;;;;;;;;;;5046401;28;20564;-52
2022/03/22 05:57:17;;;;;;;7.50;4.18;;;;;;;;;;5062946;28;20032;-52
2022/03/22 05:59:44;;;;;;;7.65;4.78;;;;;;;;;;5057890;28;20029;-52
2022/03/22 06:02:10;;;;;;;8.73;4.32;;;;;;;;;;5045034;28;20029;-49
2022/03/22 06:04:36;;;;;;;6.85;4.03;;;;;;;;;;5041165;28;20031;-52
2022/03/22 06:07:03;;;;;;;8.18;4.80;;;;;;;;;;5029840;28;20119;-51
2022/03/22 06:09:29;;;;;;;7.80;4.38;;;;;;;;;;5025645;28;20038;-50
2022/03/22 06:11:55;;;;;;;7.88;4.18;;;;;;;;;;5025767;28;20029;-50
2022/03/22 06:14:22;;;;;;;6.22;4.13;;;;;;;;;;5042821;28;20024;-49
2022/03/22 06:16:48;;;;;;;7.18;4.00;;;;;;;;;;5045322;28;20423;-51
2022/03/22 06:19:14;;;;;;;10.13;4.43;;;;;;;;;;5042854;28;20033;-50
2022/03/22 06:21:40;;;;;;;6.40;3.42;;;;;;;;;;5047844;28;20377;-50
2022/03/22 06:24:06;;;;;;;5.38;3.25;;;;;;;;;;5048477;28;20033;-50
2022/03/22 06:26:32;;;;;;;6.47;3.58;;;;;;;;;;5049394;28;20396;-52
2022/03/22 06:29:00;;;;;;;7.47;4.25;;;;;;;;;;5033010;28;20041;-52
2022/03/22 06:31:27;;;;;;;7.40;4.05;;;;;;;;;;5029029;28;20393;-51
2022/03/22 06:33:53;;;;;;;6.22;3.97;;;;;;;;;;5040588;28;20041;-50
2022/03/22 06:36:20;;;;;;;9.48;3.83;;;;;;;;;;5048284;28;20055;-49
2022/03/22 06:38:46;;;;;;;7.00;4.10;;;;;;;;;;5047192;28;20469;-50
2022/03/22 06:41:12;;;;;;;6.70;3.97;;;;;;;;;;5048668;28;20100;-51
2022/03/22 06:43:39;;;;;;;8.18;4.43;;;;;;;;;;5040467;28;20036;-53
2022/03/22 06:46:05;;;;;;;8.27;4.43;;;;;;;;;;5027575;28;20033;-50
2022/03/22 06:48:31;;;;;;;6.70;4.40;;;;;;;;;;5038309;28;20438;-52
2022/03/22 06:50:57;;;;;;;7.07;4.70;;;;;;;;;;5031192;28;20029;-50
2022/03/22 06:53:23;;;;;;;8.80;4.88;;;;;;;;;;5029167;28;20041;-51
2022/03/22 06:55:51;;;;;;;7.70;4.60;;;;;;;;;;5028867;28;20504;-51
2022/03/22 06:58:21;;;;;;;7.80;4.85;;;;;;;;;;5031864;28;20044;-50
2022/03/22 07:00:47;;;;;;;7.47;4.50;;;;;;;;;;5036338;28;20780;-53
2022/03/22 07:03:14;;;;;;;8.73;4.50;;;;;;;;;;5042244;28;20044;-53
2022/03/22 07:05:42;;;;;;;6.38;4.15;;;;;;;;;;5029997;28;20045;-51
2022/03/22 07:08:08;;;;;;;7.72;4.82;;;;;;;;;;5034419;28;20065;-50
2022/03/22 07:10:35;;;;;;;5.72;3.65;;;;;;;;;;5044781;28;20064;-54
2022/03/22 07:13:04;;;;;;;5.95;3.75;;;;;;;;;;5049146;28;20465;-51
2022/03/22 07:15:39;;;;;;;5.50;3.58;;;;;;;;;;5046008;28;20025;-52
2022/03/22 07:18:07;;;;;;;5.78;3.55;;;;;;;;;;5029621;28;20034;-51
2022/03/22 07:20:33;;;;;;;6.80;3.97;;;;;;;;;;5031075;28;20045;-49
2022/03/22 07:23:00;;;;;;;6.00;3.58;;;;;;;;;;5030251;28;20034;-49
2022/03/22 07:25:27;;;;;;;5.22;3.30;;;;;;;;;;5035782;28;20124;-53
2022/03/22 07:27:54;;;;;;;4.30;3.20;;;;;;;;;;5047985;28;20533;-52
2022/03/22 07:30:22;;;;;;;4.68;3.80;;;;;;;;;;5034185;28;20060;-52
2022/03/22 07:32:49;;;;;;;4.35;2.88;;;;;;;;;;5027286;28;20044;-51
2022/03/22 07:35:17;;;;;;;4.60;3.03;;;;;;;;;;5032729;28;20052;-52
2022/03/22 07:37:44;;;;;;;5.57;3.03;;;;;;;;;;5027939;28;20482;-50
2022/03/22 07:40:11;;;;;;;3.95;2.92;;;;;;;;;;5028456;28;20554;-53
2022/03/22 07:42:37;;;;;;;4.20;2.90;;;;;;;;;;5027318;28;20385;-52
2022/03/22 07:45:05;;;;;;;4.30;2.70;;;;;;;;;;5027776;28;20103;-50
2022/03/22 07:47:33;;;;;;;5.05;3.28;;;;;;;;;;5036206;28;20116;-49
2022/03/22 07:53:05;;;;;;;4.05;2.65;;;;;;;;;;5055595;28;20428;-52
2022/03/22 07:55:37;;;;;;;5.82;2.88;;;;;;;;;;5063782;28;20415;-52
2022/03/22 07:58:05;;;;;;;3.75;2.80;;;;;;;;;;5029319;28;20417;-53
2022/03/22 08:00:35;;;;;;;3.67;2.30;;;;;;;;;;5027051;28;20018;-52
2022/03/22 08:03:03;;;;;;;4.90;2.60;;;;;;;;;;5027550;28;20021;-54
2022/03/22 08:05:29;;;;;;;4.38;2.75;;;;;;;;;;5028508;28;20461;-53
2022/03/22 08:07:55;;;;;;;5.00;2.70;;;;;;;;;;5028138;28;20410;-52
2022/03/22 08:10:22;;;;;;;3.72;2.47;;;;;;;;;;5025838;28;20033;-50
2022/03/22 08:12:50;;;;;;;3.60;2.40;;;;;;;;;;5034646;28;20043;-49
2022/03/22 08:15:17;;;;;;;4.55;2.50;;;;;;;;;;5031267;28;20027;-50
2022/03/22 08:17:43;;;;;;;2.92;2.25;;;;;;;;;;5027821;28;20032;-50
2022/03/22 08:20:10;;;;;;;4.03;2.60;;;;;;;;;;5028966;28;20026;-52
2022/03/22 08:22:48;;;;;;;3.80;2.50;;;;;;;;;;5046305;28;20029;-51
2022/03/22 08:25:16;;;;;;;4.03;2.25;;;;;;;;;;5028306;28;20552;-52
2022/03/22 08:27:42;;;;;;;4.28;2.65;;;;;;;;;;5035919;28;20035;-52
2022/03/22 08:30:10;;;;;;;3.78;2.75;;;;;;;;;;5046944;28;20376;-51
2022/03/22 08:32:36;;;;;;;6.10;3.17;;;;;;;;;;5046051;28;20025;-50
2022/03/22 08:35:03;;;;;;;7.00;3.75;;;;;;;;;;5046783;28;20510;-49
2022/03/22 08:37:29;;;;;;;7.32;4.13;;;;;;;;;;5046394;28;20036;-51
2022/03/22 08:39:55;;;;;;;7.10;4.30;;;;;;;;;;5045009;28;20025;-49
2022/03/22 08:42:21;;;;;;;8.52;4.22;;;;;;;;;;5026370;28;20029;-51
2022/03/22 08:44:48;;;;;;;9.30;4.50;;;;;;;;;;5026390;28;20508;-49
2022/03/22 08:47:15;;;;;;;7.25;4.90;;;;;;;;;;5027251;28;20033;-50
2022/03/22 08:49:41;;;;;;;8.90;5.20;;;;;;;;;;5027066;28;20029;-50
2022/03/22 08:52:07;;;;;;;8.77;5.13;;;;;;;;;;5034294;28;20380;-50
2022/03/22 08:54:35;;;;;;;8.20;4.95;;;;;;;;;;5066397;28;20082;-50
2022/03/22 08:57:01;;;;;;;10.82;5.93;;;;;;;;;;5066070;28;20027;-53
2022/03/22 08:59:27;;;;;;;9.50;5.75;;;;;;;;;;5066261;28;20024;-49
2022/03/22 09:01:53;;;;;;;11.48;6.00;;;;;;;;;;5066236;28;20043;-50
2022/03/22 09:07:04;;;;;;;;;;;;;;;;;;5047128;28;20545;-50
2022/03/22 09:09:30;;;;;;;11.32;6.30;;;;;;;;;;5042924;28;19950;-49
2022/03/22 09:11:56;;;;;;;9.45;5.97;;;;;;;;;;5024711;28;20516;-50
2022/03/22 09:14:24;;;;;;;9.52;5.68;;;;;;;;;;5026227;28;20050;-50
2022/03/22 09:16:51;;;;;;;11.90;6.07;;;;;;;;;;5026019;28;20025;-50
2022/03/22 09:19:17;;;;;;;10.65;5.70;;;;;;;;;;5026391;28;20034;-50
2022/03/22 09:21:44;;;;;;;10.30;5.72;;;;;;;;;;5027292;28;20558;-49
2022/03/22 09:24:10;;;;;;;11.05;6.90;;;;;;;;;;5033051;28;20504;-50
2022/03/22 09:26:36;;;;;;;9.68;6.45;;;;;;;;;;5039135;28;20029;-52
2022/03/22 09:29:03;;;;;;;8.90;6.60;;;;;;;;;;5026151;28;20506;-49
2022/03/22 09:31:30;;;;;;;11.18;6.40;;;;;;;;;;5033774;28;20396;-51
2022/03/22 09:33:57;;;;;;;11.23;6.45;;;;;;;;;;5038548;28;20021;-52
2022/03/22 09:36:23;;;;;;;13.38;7.43;;;;;;;;;;5027066;28;20531;-52
2022/03/22 09:38:49;;;;;;;14.77;8.07;;;;;;;;;;5036468;28;20039;-52
2022/03/22 09:41:16;;;;;;;13.90;8.18;;;;;;;;;;5057841;28;20033;-52
2022/03/22 09:43:49;;;;;;;11.57;7.30;;;;;;;;;;5048349;28;20025;-53
2022/03/22 09:46:19;;;;;;;12.32;7.30;;;;;;;;;;5057241;28;20089;-53
2022/03/22 09:48:49;;;;;;;13.07;7.88;;;;;;;;;;5027024;28;20032;-53
2022/03/22 09:54:03;;;;;;;18.05;8.57;;;;;;;;;;5066398;28;20098;-53
2022/03/22 09:56:30;;;;;;;15.63;9.60;;;;;;;;;;5043729;28;20017;-53
2022/03/22 09:59:00;;;;;;;14.57;8.70;;;;;;;;;;5029707;28;20060;-52
2022/03/22 10:01:27;;;;;;;12.82;8.05;;;;;;;;;;5029169;28;20022;-53
2022/03/22 10:03:57;;;;;;;15.88;8.32;;;;;;;;;;5046035;28;20650;-52
2022/03/22 10:06:23;;;;;;;15.70;8.43;;;;;;;;;;5040757;28;20025;-54
2022/03/22 10:08:50;;;;;;;13.38;7.50;;;;;;;;;;5035233;28;20072;-53
2022/03/22 10:11:17;;;;;;;12.68;7.78;;;;;;;;;;5029767;28;20036;-53
2022/03/22 10:13:52;;;;;;;15.05;8.82;;;;;;;;;;5029720;28;20030;-54
2022/03/22 10:16:19;;;;;;;13.63;8.50;;;;;;;;;;5028702;28;20025;-53
2022/03/22 10:18:46;;;;;;;13.57;7.90;;;;;;;;;;5027948;28;20475;-53
2022/03/22 10:21:12;;;;;;;14.25;7.95;;;;;;;;;;5028471;28;20025;-52
2022/03/22 10:23:51;;;;;;;11.70;7.63;;;;;;;;;;5027660;28;20033;-53
2022/03/22 10:26:18;;;;;;;10.35;7.05;;;;;;;;;;5027516;28;20536;-54
2022/03/22 10:28:50;;;;;;;11.85;7.47;;;;;;;;;;5027883;28;20060;-50
2022/03/22 10:31:17;;;;;;;12.52;8.18;;;;;;;;;;5027978;28;20021;-52
2022/03/22 10:33:54;;;;;;;11.35;7.72;;;;;;;;;;5028362;28;20037;-52
2022/03/22 10:36:25;;;;;;;12.68;7.72;;;;;;;;;;5028059;28;20057;-54
2022/03/22 10:39:00;;;;;;;10.48;6.95;;;;;;;;;;5027764;28;20030;-53
2022/03/22 10:41:30;;;;;;;10.35;6.60;;;;;;;;;;5027533;28;20381;-50
2022/03/22 10:44:04;;;;;;;10.27;6.78;;;;;;;;;;5026598;28;20053;-54
2022/03/22 10:46:30;;;;;;;10.55;6.93;;;;;;;;;;5027849;28;20554;-53
2022/03/22 10:49:07;;;;;;;10.70;7.38;;;;;;;;;;5027800;28;20026;-53
2022/03/22 10:51:46;;;;;;;12.65;7.18;;;;;;;;;;5027208;28;20033;-54
2022/03/22 10:54:15;;;;;;;12.57;8.10;;;;;;;;;;5028239;28;20017;-52
2022/03/22 10:56:52;;;;;;;10.75;7.40;;;;;;;;;;5027727;28;20018;-54
2022/03/22 10:59:20;;;;;;;10.90;7.45;;;;;;;;;;5027459;28;20028;-54
2022/03/22 11:01:46;;;;;;;9.48;6.68;;;;;;;;;;5027101;28;20053;-53
2022/03/22 11:04:16;;;;;;;9.43;6.15;;;;;;;;;;5028175;28;20048;-53
2022/03/22 11:06:46;;;;;;;11.18;6.93;;;;;;;;;;5027593;28;20104;-52
2022/03/22 11:09:13;;;;;;;9.50;6.47;;;;;;;;;;5026848;28;20434;-52
2022/03/22 11:11:40;;;;;;;11.95;7.20;;;;;;;;;;5027089;28;20025;-52
2022/03/22 11:14:06;;;;;;;9.88;7.25;;;;;;;;;;5027183;28;20025;-50
2022/03/22 11:16:33;;;;;;;11.48;8.23;;;;;;;;;;5026745;28;20029;-52
2022/03/22 11:19:00;;;;;;;10.00;7.10;;;;;;;;;;5027090;28;20030;-49
2022/03/22 11:21:26;;;;;;;10.57;7.25;;;;;;;;;;5026648;28;20034;-52
2022/03/22 11:24:02;;;;;;;9.68;7.18;;;;;;;;;;5027014;28;20451;-53
2022/03/22 11:26:28;;;;;;;10.70;7.53;;;;;;;;;;5026691;28;20042;-55
2022/03/22 11:28:55;;;;;;;9.88;6.97;;;;;;;;;;5027043;28;20029;-53
2022/03/22 11:31:24;;;;;;;11.73;7.63;;;;;;;;;;5026859;28;20091;-53
2022/03/22 11:34:09;;;;;;;13.02;7.53;;;;;;;;;;5026858;28;20026;-53
2022/03/22 11:36:41;;;;;;;11.32;7.10;;;;;;;;;;5026454;28;20362;-52
2022/03/22 11:39:07;;;;;;;13.88;7.90;;;;;;;;;;5026733;28;20018;-53
2022/03/22 11:44:19;;;;;;;10.82;7.68;;;;;;;;;;5026757;28;20159;-54
2022/03/22 11:46:46;;;;;;;13.07;7.95;;;;;;;;;;5026239;28;20025;-53
2022/03/22 11:49:13;;;;;;;13.18;7.80;;;;;;;;;;5027405;28;20041;-52
2022/03/22 11:51:54;;;;;;;10.93;7.00;;;;;;;;;;5025871;28;20023;-53
2022/03/22 11:54:21;;;;;;;11.38;7.28;;;;;;;;;;5026615;28;20080;-53
2022/03/22 11:56:49;;;;;;;9.68;7.00;;;;;;;;;;5026011;28;20037;-53
2022/03/22 11:59:16;;;;;;;11.82;6.28;;;;;;;;;;5026464;28;20079;-52
2022/03/22 12:01:53;;;;;;;8.52;5.93;;;;;;;;;;5026549;28;20067;-53
2022/03/22 12:04:19;;;;;;;9.05;6.55;;;;;;;;;;5026109;28;20040;-54
2022/03/22 12:06:45;;;;;;;10.85;6.32;;;;;;;;;;5025922;28;20215;-53
2022/03/22 12:09:11;;;;;;;8.18;5.78;;;;;;;;;;5026735;28;20511;-53
2022/03/22 12:11:37;;;;;;;7.60;5.30;;;;;;;;;;5025514;28;20108;-52
2022/03/22 12:14:04;;;;;;;7.85;5.43;;;;;;;;;;5026198;28;20026;-52
2022/03/22 12:16:30;;;;;;;5.72;4.15;;;;;;;;;;5025926;28;20029;-53
2022/03/22 12:18:59;;;;;;;6.82;4.53;;;;;;;;;;5025698;28;20030;-53
2022/03/22 12:21:26;;;;;;;6.05;4.07;;;;;;;;;;5025775;28;20030;-54
2022/03/22 12:23:54;;;;;;;6.00;4.05;;;;;;;;;;5025879;28;20412;-54
2022/03/22 12:26:21;;;;;;;4.85;3.85;;;;;;;;;;5025720;28;20036;-54
2022/03/22 12:28:48;;;;;;;6.32;4.53;;;;;;;;;;5025875;28;20114;-53
2022/03/22 12:31:20;;;;;;;5.50;4.40;;;;;;;;;;5025689;28;20420;-53
2022/03/22 12:33:50;;;;;;;6.22;5.00;;;;;;;;;;5025447;28;20040;-53
2022/03/22 12:36:18;;;;;;;6.93;5.45;;;;;;;;;;5025713;28;20042;-54
2022/03/22 12:38:45;;;;;;;8.70;5.85;;;;;;;;;;5025595;28;20447;-53
2022/03/22 12:41:11;;;;;;;9.77;5.82;;;;;;;;;;5026179;28;20112;-52
2022/03/22 12:43:37;;;;;;;6.68;4.50;;;;;;;;;;5025386;28;20029;-54
2022/03/22 12:46:03;;;;;;;5.43;4.30;;;;;;;;;;5025458;28;20030;-53
2022/03/22 12:48:30;;;;;;;6.15;4.28;;;;;;;;;;5025223;28;20029;-53
2022/03/22 12:50:56;;;;;;;5.65;4.40;;;;;;;;;;5025337;28;20076;-53
2022/03/22 12:53:23;;;;;;;4.25;3.45;;;;;;;;;;5025473;28;20026;-54
2022/03/22 12:55:49;;;;;;;4.82;3.83;;;;;;;;;;5024983;28;20113;-54
2022/03/22 12:58:15;;;;;;;6.32;4.40;;;;;;;;;;5025866;28;20447;-53
2022/03/22 13:00:42;;;;;;;5.18;3.80;;;;;;;;;;5025461;28;20080;-54
2022/03/22 13:03:08;;;;;;;5.20;4.00;;;;;;;;;;5025316;28;20455;-53
2022/03/22 13:05:39;;;;;;;4.90;3.63;;;;;;;;;;5025282;28;20546;-54
2022/03/22 13:08:11;;;;;;;4.38;3.40;;;;;;;;;;5025234;28;20037;-53
2022/03/22 13:13:21;;;;;;;;;;;;;;;;;;5025650;28;20610;-54
2022/03/22 13:15:53;;;;;;;4.20;3.53;;;;;;;;;;5024916;28;19909;-53
2022/03/22 13:18:20;;;;;;;6.97;4.20;;;;;;;;;;5025202;28;20087;-54
2022/03/22 13:20:47;;;;;;;8.93;5.57;;;;;;;;;;5024632;28;20025;-54
2022/03/22 13:23:14;;;;;;;7.43;4.60;;;;;;;;;;5025507;28;20040;-54
2022/03/22 13:25:41;;;;;;;5.97;4.15;;;;;;;;;;5025022;28;20075;-53
2022/03/22 13:28:09;;;;;;;4.70;3.50;;;;;;;;;;5025065;28;20129;-53
2022/03/22 13:30:37;;;;;;;5.32;3.67;;;;;;;;;;5022710;28;20036;-54
2022/03/22 13:33:13;;;;;;;4.75;3.40;;;;;;;;;;5024534;28;20060;-53
2022/03/22 13:35:51;;;;;;;4.15;3.25;;;;;;;;;;5025120;28;20337;-53
2022/03/22 13:38:17;;;;;;;4.55;3.17;;;;;;;;;;5024759;28;20594;-54
2022/03/22 13:40:45;;;;;;;6.97;3.70;;;;;;;;;;5024953;28;20072;-54
2022/03/22 13:43:12;;;;;;;6.22;4.20;;;;;;;;;;5025411;28;20091;-54
2022/03/22 13:45:41;;;;;;;5.25;3.88;;;;;;;;;;5024485;28;20112;-54
2022/03/22 13:48:12;;;;;;;4.65;3.78;;;;;;;;;;5024637;28;20038;-55
2022/03/22 13:50:38;;;;;;;5.22;3.60;;;;;;;;;;5024499;28;20029;-53
2022/03/22 13:53:04;;;;;;;4.05;3.08;;;;;;;;;;5024431;28;20029;-55
2022/03/22 13:55:31;;;;;;;6.28;3.90;;;;;;;;;;5024277;28;20505;-54
2022/03/22 13:57:59;;;;;;;6.85;4.18;;;;;;;;;;5024301;28;20040;-54
2022/03/22 14:00:25;;;;;;;5.00;3.83;;;;;;;;;;5027879;28;20036;-54
2022/03/22 14:02:52;;;;;;;4.47;3.00;;;;;;;;;;5030891;28;20116;-53
2022/03/22 14:05:18;;;;;;;4.00;3.03;;;;;;;;;;5041979;28;20036;-54
2022/03/22 14:07:54;;;;;;;4.95;3.40;;;;;;;;;;5049838;28;20032;-53
2022/03/22 14:10:21;;;;;;;3.75;2.92;;;;;;;;;;5025558;28;20037;-53
2022/03/22 14:12:47;;;;;;;4.78;3.13;;;;;;;;;;5026075;28;20443;-52
2022/03/22 14:15:13;;;;;;;3.38;2.72;;;;;;;;;;5032662;28;20436;-53
2022/03/22 14:17:40;;;;;;;5.45;3.70;;;;;;;;;;5041538;28;20022;-52
2022/03/22 14:20:06;;;;;;;4.20;3.33;;;;;;;;;;5036983;28;20017;-54
2022/03/22 14:22:33;;;;;;;7.30;4.60;;;;;;;;;;5030358;28;20036;-53
2022/03/22 14:24:59;;;;;;;7.95;5.18;;;;;;;;;;5031621;28;20096;-51
2022/03/22 14:27:25;;;;;;;6.75;4.90;;;;;;;;;;5026344;28;20543;-53
2022/03/22 14:29:52;;;;;;;6.10;4.20;;;;;;;;;;5064766;28;20028;-53
2022/03/22 14:32:18;;;;;;;5.13;3.72;;;;;;;;;;5057753;28;20025;-51
2022/03/22 14:37:30;;;;;;;5.97;4.68;;;;;;;;;;5028351;28;20120;-53
2022/03/22 14:39:56;;;;;;;5.25;4.20;;;;;;;;;;5035889;28;20029;-52
2022/03/22 14:42:23;;;;;;;5.00;3.67;;;;;;;;;;5038791;28;20064;-54
2022/03/22 14:44:52;;;;;;;5.32;3.90;;;;;;;;;;5041103;28;20025;-52
2022/03/22 14:47:18;;;;;;;6.68;4.60;;;;;;;;;;5028729;28;20044;-49
2022/03/22 14:49:45;;;;;;;4.10;3.50;;;;;;;;;;5030570;28;20159;-50
2022/03/22 14:54:56;;;;;;;6.57;5.03;;;;;;;;;;5026247;28;20055;-52
2022/03/22 15:00:07;;;;;;;6.28;5.05;;;;;;;;;;5040528;28;20055;-48
2022/03/22 15:02:39;;;;;;;5.72;4.38;;;;;;;;;;5030008;28;20033;-50
2022/03/22 15:05:31;;;;;;;6.75;4.40;;;;;;;;;;5036534;28;20030;-53
2022/03/22 15:07:53;;;;;;;7.05;5.15;;;;;;;;;;5043014;28;20080;-51
2022/03/22 15:10:19;;;;;;;7.53;5.25;;;;;;;;;;5042929;28;20421;-52
2022/03/22 15:12:46;;;;;;;7.25;5.40;;;;;;;;;;5026257;28;20080;-51
2022/03/22 15:15:12;;;;;;;5.20;4.47;;;;;;;;;;5027242;28;20509;-50
2022/03/22 15:17:38;;;;;;;7.25;4.97;;;;;;;;;;5018334;28;20057;-51
2022/03/22 15:20:04;;;;;;;7.25;5.22;;;;;;;;;;5026767;28;20967;-51
2022/03/22 15:22:30;;;;;;;5.97;4.90;;;;;;;;;;5027748;28;20074;-52
2022/03/22 15:24:56;;;;;;;4.95;4.20;;;;;;;;;;5044800;28;20029;-51
2022/03/22 15:27:22;;;;;;;7.05;4.93;;;;;;;;;;5036795;28;20095;-50
2022/03/22 15:29:48;;;;;;;6.13;4.65;;;;;;;;;;5041515;28;20083;-49